sensor_id;sensor_type;location;lat;lon;timestamp;pressure;altitude;pressure_sealevel;temperature;humidity
72359;BME280;60317;48.880;-0.862;2022-10-26T00:02:19;99669.81;;;20.34;58.17
72359;BME280;60317;48.880;-0.862;2022-10-26T00:04:46;99674.34;;;20.33;58.18
72359;BME280;60317;48.880;-0.862;2022-10-26T00:07:13;99668.13;;;20.33;58.18
72359;BME280;60317;48.880;-0.862;2022-10-26T00:09:40;99666.28;;;20.33;58.30
72359;BME280;60317;48.880;-0.862;2022-10-26T00:12:06;99679.72;;;20.33;58.17
72359;BME280;60317;48.880;-0.862;2022-10-26T00:14:32;99681.41;;;20.34;58.29
72359;BME280;60317;48.880;-0.862;2022-10-26T00:16:59;99680.56;;;20.34;58.17
72359;BME280;60317;48.880;-0.862;2022-10-26T00:19:25;99690.75;;;20.30;58.20
72359;BME280;60317;48.880;-0.862;2022-10-26T00:21:52;99670.97;;;20.31;58.26
72359;BME280;60317;48.880;-0.862;2022-10-26T00:24:19;99680.69;;;20.32;58.19
72359;BME280;60317;48.880;-0.862;2022-10-26T00:26:46;99680.69;;;20.32;58.35
72359;BME280;60317;48.880;-0.862;2022-10-26T00:29:12;99687.91;;;20.32;58.23
72359;BME280;60317;48.880;-0.862;2022-10-26T00:31:38;99680.69;;;20.32;58.11
72359;BME280;60317;48.880;-0.862;2022-10-26T00:34:05;99691.41;;;20.32;58.18
72359;BME280;60317;48.880;-0.862;2022-10-26T00:36:31;99689.59;;;20.33;58.19
72359;BME280;60317;48.880;-0.862;2022-10-26T00:38:57;99686.94;;;20.33;58.39
72359;BME280;60317;48.880;-0.862;2022-10-26T00:41:26;99691.59;;;20.31;58.32
72359;BME280;60317;48.880;-0.862;2022-10-26T00:43:53;99689.75;;;20.31;58.26
72359;BME280;60317;48.880;-0.862;2022-10-26T00:46:20;99692.44;;;20.31;58.19
72359;BME280;60317;48.880;-0.862;2022-10-26T00:48:48;99685.22;;;20.32;58.37
72359;BME280;60317;48.880;-0.862;2022-10-26T00:51:17;99697.66;;;20.33;58.08
72359;BME280;60317;48.880;-0.862;2022-10-26T00:53:46;99692.44;;;20.31;58.31
72359;BME280;60317;48.880;-0.862;2022-10-26T00:56:13;99689.75;;;20.31;58.46
72359;BME280;60317;48.880;-0.862;2022-10-26T00:58:42;99688.72;;;20.32;58.43
72359;BME280;60317;48.880;-0.862;2022-10-26T01:01:09;99693.13;;;20.33;58.33
72359;BME280;60317;48.880;-0.862;2022-10-26T01:03:35;99696.78;;;20.32;58.43
72359;BME280;60317;48.880;-0.862;2022-10-26T01:06:02;99695.09;;;20.31;58.45
72359;BME280;60317;48.880;-0.862;2022-10-26T01:08:29;99699.47;;;20.32;58.66
72359;BME280;60317;48.880;-0.862;2022-10-26T01:10:55;99698.63;;;20.32;58.54
72359;BME280;60317;48.880;-0.862;2022-10-26T01:13:23;99712.88;;;20.32;58.58
72359;BME280;60317;48.880;-0.862;2022-10-26T01:15:55;99707.53;;;20.32;58.65
72359;BME280;60317;48.880;-0.862;2022-10-26T01:18:28;99710.22;;;20.32;58.54
72359;BME280;60317;48.880;-0.862;2022-10-26T01:21:07;99716.56;;;20.31;58.82
72359;BME280;60317;48.880;-0.862;2022-10-26T01:23:42;99714.91;;;20.30;58.76
72359;BME280;60317;48.880;-0.862;2022-10-26T01:26:20;99720.09;;;20.32;58.63
72359;BME280;60317;48.880;-0.862;2022-10-26T01:31:36;99724.63;;;20.31;58.58
72359;BME280;60317;48.880;-0.862;2022-10-26T01:34:05;99724.78;;;20.30;58.72
72359;BME280;60317;48.880;-0.862;2022-10-26T01:36:36;99736.38;;;20.30;58.73
72359;BME280;60317;48.880;-0.862;2022-10-26T01:39:08;99741.56;;;20.32;58.83
72359;BME280;60317;48.880;-0.862;2022-10-26T01:41:42;99739.88;;;20.31;58.73
72359;BME280;60317;48.880;-0.862;2022-10-26T01:44:12;99733.69;;;20.30;58.81
72359;BME280;60317;48.880;-0.862;2022-10-26T01:46:42;99736.38;;;20.30;58.86
72359;BME280;60317;48.880;-0.862;2022-10-26T01:49:10;99746.09;;;20.31;59.13
72359;BME280;60317;48.880;-0.862;2022-10-26T01:51:38;99744.25;;;20.32;59.02
72359;BME280;60317;48.880;-0.862;2022-10-26T01:54:05;99746.09;;;20.31;59.01
72359;BME280;60317;48.880;-0.862;2022-10-26T01:56:33;99747.22;;;20.29;59.11
72359;BME280;60317;48.880;-0.862;2022-10-26T01:59:10;99760.50;;;20.30;59.25
72359;BME280;60317;48.880;-0.862;2022-10-26T02:01:45;99758.84;;;20.29;59.27
72359;BME280;60317;48.880;-0.862;2022-10-26T02:04:17;99753.47;;;20.29;59.25
72359;BME280;60317;48.880;-0.862;2022-10-26T02:06:51;99754.31;;;20.30;59.28
72359;BME280;60317;48.880;-0.862;2022-10-26T02:09:24;99747.09;;;20.30;59.26
72359;BME280;60317;48.880;-0.862;2022-10-26T02:11:52;99758.69;;;20.31;59.21
72359;BME280;60317;48.880;-0.862;2022-10-26T02:14:20;99763.19;;;20.30;59.15
72359;BME280;60317;48.880;-0.862;2022-10-26T02:16:53;99755.16;;;20.30;59.20
72359;BME280;60317;48.880;-0.862;2022-10-26T02:19:26;99757.13;;;20.28;59.30
72359;BME280;60317;48.880;-0.862;2022-10-26T02:21:56;99758.84;;;20.29;59.30
72359;BME280;60317;48.880;-0.862;2022-10-26T02:24:25;99766.72;;;20.31;59.33
72359;BME280;60317;48.880;-0.862;2022-10-26T02:26:52;99766.88;;;20.29;59.44
72359;BME280;60317;48.880;-0.862;2022-10-26T02:29:20;99760.81;;;20.27;59.28
72359;BME280;60317;48.880;-0.862;2022-10-26T02:31:48;99771.38;;;20.29;59.56
72359;BME280;60317;48.880;-0.862;2022-10-26T02:34:17;99768.88;;;20.27;59.37
72359;BME280;60317;48.880;-0.862;2022-10-26T02:36:46;99760.81;;;20.27;59.56
72359;BME280;60317;48.880;-0.862;2022-10-26T02:39:15;99764.22;;;20.29;59.47
72359;BME280;60317;48.880;-0.862;2022-10-26T02:41:41;99766.88;;;20.29;59.57
72359;BME280;60317;48.880;-0.862;2022-10-26T02:44:11;99771.53;;;20.27;59.50
72359;BME280;60317;48.880;-0.862;2022-10-26T02:46:38;99776.91;;;20.27;59.69
72359;BME280;60317;48.880;-0.862;2022-10-26T02:49:05;99772.38;;;20.27;59.51
72359;BME280;60317;48.880;-0.862;2022-10-26T02:51:33;99776.06;;;20.26;59.65
72359;BME280;60317;48.880;-0.862;2022-10-26T02:54:01;99779.59;;;20.27;59.73
72359;BME280;60317;48.880;-0.862;2022-10-26T02:56:32;99787.66;;;20.27;59.83
72359;BME280;60317;48.880;-0.862;2022-10-26T02:59:03;99780.59;;;20.26;59.58
72359;BME280;60317;48.880;-0.862;2022-10-26T03:01:31;99782.56;;;20.24;59.86
72359;BME280;60317;48.880;-0.862;2022-10-26T03:03:59;99779.75;;;20.25;59.86
72359;BME280;60317;48.880;-0.862;2022-10-26T03:06:25;99786.09;;;20.24;59.83
72359;BME280;60317;48.880;-0.862;2022-10-26T03:08:53;99785.25;;;20.24;59.83
72359;BME280;60317;48.880;-0.862;2022-10-26T03:11:19;99792.47;;;20.23;59.96
72359;BME280;60317;48.880;-0.862;2022-10-26T03:13:46;99805.72;;;20.25;59.80
72359;BME280;60317;48.880;-0.862;2022-10-26T03:16:12;99802.06;;;20.26;59.80
72359;BME280;60317;48.880;-0.862;2022-10-26T03:18:38;99795.00;;;20.25;59.89
72359;BME280;60317;48.880;-0.862;2022-10-26T03:21:05;99798.66;;;20.24;59.95
72359;BME280;60317;48.880;-0.862;2022-10-26T03:23:31;99798.66;;;20.24;59.80
72359;BME280;60317;48.880;-0.862;2022-10-26T03:25:59;99797.00;;;20.23;59.96
72359;BME280;60317;48.880;-0.862;2022-10-26T03:28:25;99804.88;;;20.24;59.87
72359;BME280;60317;48.880;-0.862;2022-10-26T03:30:52;99808.56;;;20.23;60.08
72359;BME280;60317;48.880;-0.862;2022-10-26T03:33:18;99813.09;;;20.23;60.11
72359;BME280;60317;48.880;-0.862;2022-10-26T03:35:52;99799.69;;;20.23;59.86
72359;BME280;60317;48.880;-0.862;2022-10-26T03:38:19;99800.50;;;20.23;59.83
72359;BME280;60317;48.880;-0.862;2022-10-26T03:40:45;99801.53;;;20.22;59.83
72359;BME280;60317;48.880;-0.862;2022-10-26T03:43:13;99808.56;;;20.23;59.81
72359;BME280;60317;48.880;-0.862;2022-10-26T03:45:39;99797.13;;;20.21;60.00
72359;BME280;60317;48.880;-0.862;2022-10-26T03:48:05;99793.59;;;20.21;60.03
72359;BME280;60317;48.880;-0.862;2022-10-26T03:50:32;99788.22;;;20.21;60.04
72359;BME280;60317;48.880;-0.862;2022-10-26T03:52:58;99795.31;;;20.22;59.91
72359;BME280;60317;48.880;-0.862;2022-10-26T03:55:24;99800.69;;;20.22;59.90
72359;BME280;60317;48.880;-0.862;2022-10-26T03:57:51;99798.97;;;20.21;59.97
72359;BME280;60317;48.880;-0.862;2022-10-26T04:00:18;99798.97;;;20.21;60.10
72359;BME280;60317;48.880;-0.862;2022-10-26T04:02:45;99793.59;;;20.21;59.91
72359;BME280;60317;48.880;-0.862;2022-10-26T04:05:18;99811.53;;;20.20;59.96
72359;BME280;60317;48.880;-0.862;2022-10-26T04:07:50;99820.44;;;20.21;59.98
72359;BME280;60317;48.880;-0.862;2022-10-26T04:10:17;99820.44;;;20.21;60.11
72359;BME280;60317;48.880;-0.862;2022-10-26T04:12:43;99823.09;;;20.21;60.04
72359;BME280;60317;48.880;-0.862;2022-10-26T04:15:09;99811.69;;;20.19;59.97
72359;BME280;60317;48.880;-0.862;2022-10-26T04:17:37;99819.75;;;20.19;60.06
72359;BME280;60317;48.880;-0.862;2022-10-26T04:20:03;99823.28;;;20.19;60.13
72359;BME280;60317;48.880;-0.862;2022-10-26T04:22:30;99830.31;;;20.20;60.06
72359;BME280;60317;48.880;-0.862;2022-10-26T04:24:56;99840.22;;;20.20;60.02
72359;BME280;60317;48.880;-0.862;2022-10-26T04:27:22;99836.69;;;20.19;59.98
72359;BME280;60317;48.880;-0.862;2022-10-26T04:29:49;99841.22;;;20.19;60.06
72359;BME280;60317;48.880;-0.862;2022-10-26T04:32:15;99860.84;;;20.19;60.11
72359;BME280;60317;48.880;-0.862;2022-10-26T04:34:43;99870.72;;;20.19;60.31
72359;BME280;60317;48.880;-0.862;2022-10-26T04:37:09;99875.09;;;20.20;60.26
72359;BME280;60317;48.880;-0.862;2022-10-26T04:39:35;99875.25;;;20.18;60.30
72359;BME280;60317;48.880;-0.862;2022-10-26T04:42:02;99875.25;;;20.18;60.23
72359;BME280;60317;48.880;-0.862;2022-10-26T04:44:28;99877.78;;;20.20;60.06
72359;BME280;60317;48.880;-0.862;2022-10-26T04:46:54;99872.41;;;20.20;60.24
72359;BME280;60317;48.880;-0.862;2022-10-26T04:49:21;99860.84;;;20.19;60.20
72359;BME280;60317;48.880;-0.862;2022-10-26T04:51:48;99860.84;;;20.19;60.20
72359;BME280;60317;48.880;-0.862;2022-10-26T04:54:14;99867.19;;;20.18;60.30
72359;BME280;60317;48.880;-0.862;2022-10-26T04:56:41;99857.44;;;20.17;60.34
72359;BME280;60317;48.880;-0.862;2022-10-26T04:59:07;99860.00;;;20.19;60.19
72359;BME280;60317;48.880;-0.862;2022-10-26T05:01:34;99866.19;;;20.19;60.32
72359;BME280;60317;48.880;-0.862;2022-10-26T05:04:00;99868.03;;;20.19;60.24
72359;BME280;60317;48.880;-0.862;2022-10-26T05:06:27;99871.56;;;20.19;60.29
72359;BME280;60317;48.880;-0.862;2022-10-26T05:08:54;99867.19;;;20.18;60.30
72359;BME280;60317;48.880;-0.862;2022-10-26T05:11:21;99862.69;;;20.19;60.26
72359;BME280;60317;48.880;-0.862;2022-10-26T05:13:47;99871.56;;;20.19;60.23
72359;BME280;60317;48.880;-0.862;2022-10-26T05:16:13;99875.25;;;20.18;60.33
72359;BME280;60317;48.880;-0.862;2022-10-26T05:18:40;99874.38;;;20.18;60.36
72359;BME280;60317;48.880;-0.862;2022-10-26T05:21:06;99876.22;;;20.17;60.33
72359;BME280;60317;48.880;-0.862;2022-10-26T05:23:32;99886.00;;;20.18;60.31
72359;BME280;60317;48.880;-0.862;2022-10-26T05:26:00;99893.31;;;20.16;60.38
72359;BME280;60317;48.880;-0.862;2022-10-26T05:28:26;99895.84;;;20.18;60.42
72359;BME280;60317;48.880;-0.862;2022-10-26T05:30:52;99897.56;;;20.19;60.46
72359;BME280;60317;48.880;-0.862;2022-10-26T05:33:19;99909.25;;;20.18;60.33
72359;BME280;60317;48.880;-0.862;2022-10-26T05:35:45;99905.59;;;20.19;60.59
72359;BME280;60317;48.880;-0.862;2022-10-26T05:38:12;99906.75;;;20.16;60.54
72359;BME280;60317;48.880;-0.862;2022-10-26T05:40:45;99918.19;;;20.18;60.54
72359;BME280;60317;48.880;-0.862;2022-10-26T05:43:13;99910.13;;;20.18;60.50
72359;BME280;60317;48.880;-0.862;2022-10-26T05:45:39;99916.47;;;20.17;60.54
72359;BME280;60317;48.880;-0.862;2022-10-26T05:48:05;99927.19;;;20.17;60.47
72359;BME280;60317;48.880;-0.862;2022-10-26T05:50:32;99922.00;;;20.16;60.50
72359;BME280;60317;48.880;-0.862;2022-10-26T05:52:58;99928.03;;;20.18;60.56
72359;BME280;60317;48.880;-0.862;2022-10-26T05:55:24;99928.03;;;20.18;60.50
72359;BME280;60317;48.880;-0.862;2022-10-26T05:57:51;99929.88;;;20.17;60.46
72359;BME280;60317;48.880;-0.862;2022-10-26T06:00:20;99930.72;;;20.18;60.59
72359;BME280;60317;48.880;-0.862;2022-10-26T06:02:52;99930.88;;;20.16;60.57
72359;BME280;60317;48.880;-0.862;2022-10-26T06:05:21;99941.47;;;20.18;60.41
72359;BME280;60317;48.880;-0.862;2022-10-26T06:07:49;99930.72;;;20.18;60.58
72359;BME280;60317;48.880;-0.862;2022-10-26T06:10:16;99935.41;;;20.16;60.75
72359;BME280;60317;48.880;-0.862;2022-10-26T06:12:43;99932.56;;;20.17;60.60
72359;BME280;60317;48.880;-0.862;2022-10-26T06:15:11;99938.09;;;20.16;60.57
72359;BME280;60317;48.880;-0.862;2022-10-26T06:17:42;99938.09;;;20.16;60.73
72359;BME280;60317;48.880;-0.862;2022-10-26T06:20:16;99946.13;;;20.16;60.70
72359;BME280;60317;48.880;-0.862;2022-10-26T06:22:49;99943.47;;;20.16;60.68
72359;BME280;60317;48.880;-0.862;2022-10-26T06:25:21;99956.03;;;20.15;60.72
72359;BME280;60317;48.880;-0.862;2022-10-26T06:27:51;99962.25;;;20.16;60.78
72359;BME280;60317;48.880;-0.862;2022-10-26T06:30:22;99952.34;;;20.16;60.66
72359;BME280;60317;48.880;-0.862;2022-10-26T06:32:49;99962.91;;;20.18;60.68
72359;BME280;60317;48.880;-0.862;2022-10-26T06:35:39;99969.28;;;20.17;60.68
72359;BME280;60317;48.880;-0.862;2022-10-26T06:38:10;99978.34;;;20.16;60.77
72359;BME280;60317;48.880;-0.862;2022-10-26T06:40:39;99977.50;;;20.15;60.98
72359;BME280;60317;48.880;-0.862;2022-10-26T06:43:08;99982.69;;;20.17;60.69
72359;BME280;60317;48.880;-0.862;2022-10-26T06:45:37;99975.78;;;20.14;60.92
72359;BME280;60317;48.880;-0.862;2022-10-26T06:48:06;99987.22;;;20.16;60.94
72359;BME280;60317;48.880;-0.862;2022-10-26T06:50:35;99989.06;;;20.16;60.88
72359;BME280;60317;48.880;-0.862;2022-10-26T06:53:07;99995.28;;;20.16;60.89
72359;BME280;60317;48.880;-0.862;2022-10-26T06:55:38;99986.38;;;20.16;60.76
72359;BME280;60317;48.880;-0.862;2022-10-26T06:58:07;99999.81;;;20.16;60.76
72359;BME280;60317;48.880;-0.862;2022-10-26T07:00:33;99997.13;;;20.16;60.74
72359;BME280;60317;48.880;-0.862;2022-10-26T07:03:00;100007.00;;;20.15;60.58
72359;BME280;60317;48.880;-0.862;2022-10-26T07:05:28;100000.66;;;20.16;60.69
72359;BME280;60317;48.880;-0.862;2022-10-26T07:07:54;99991.75;;;20.16;60.60
72359;BME280;60317;48.880;-0.862;2022-10-26T07:10:20;100003.31;;;20.16;60.81
72359;BME280;60317;48.880;-0.862;2022-10-26T07:12:47;100006.00;;;20.16;60.73
72359;BME280;60317;48.880;-0.862;2022-10-26T07:15:13;100007.84;;;20.16;60.74
72359;BME280;60317;48.880;-0.862;2022-10-26T07:17:41;100012.38;;;20.15;60.64
72359;BME280;60317;48.880;-0.862;2022-10-26T07:20:08;100010.66;;;20.14;60.49
72359;BME280;60317;48.880;-0.862;2022-10-26T07:22:35;100019.59;;;20.15;60.79
72359;BME280;60317;48.880;-0.862;2022-10-26T07:25:02;100023.09;;;20.15;60.68
72359;BME280;60317;48.880;-0.862;2022-10-26T07:27:28;100030.00;;;20.18;60.60
72359;BME280;60317;48.880;-0.862;2022-10-26T07:29:55;100027.63;;;20.15;60.64
72359;BME280;60317;48.880;-0.862;2022-10-26T07:32:21;100029.31;;;20.16;60.44
72359;BME280;60317;48.880;-0.862;2022-10-26T07:34:47;100031.16;;;20.15;60.65
72359;BME280;60317;48.880;-0.862;2022-10-26T07:37:14;100036.53;;;20.15;60.64
72359;BME280;60317;48.880;-0.862;2022-10-26T07:39:41;100046.41;;;20.15;60.60
72359;BME280;60317;48.880;-0.862;2022-10-26T07:42:08;100052.63;;;20.15;60.63
72359;BME280;60317;48.880;-0.862;2022-10-26T07:44:34;100057.16;;;20.15;60.70
72359;BME280;60317;48.880;-0.862;2022-10-26T07:47:01;100058.84;;;20.16;60.68
72359;BME280;60317;48.880;-0.862;2022-10-26T07:49:27;100065.03;;;20.16;60.71
72359;BME280;60317;48.880;-0.862;2022-10-26T07:51:53;100072.25;;;20.16;60.77
72359;BME280;60317;48.880;-0.862;2022-10-26T07:54:20;100063.34;;;20.15;60.58
72359;BME280;60317;48.880;-0.862;2022-10-26T07:56:48;100072.09;;;20.17;60.47
72359;BME280;60317;48.880;-0.862;2022-10-26T07:59:15;100074.94;;;20.16;60.71
72359;BME280;60317;48.880;-0.862;2022-10-26T08:01:41;100080.28;;;20.16;60.67
72359;BME280;60317;48.880;-0.862;2022-10-26T08:04:08;100085.66;;;20.16;60.56
72359;BME280;60317;48.880;-0.862;2022-10-26T08:06:34;100084.81;;;20.15;60.79
72359;BME280;60317;48.880;-0.862;2022-10-26T08:09:01;100082.97;;;20.16;60.68
72359;BME280;60317;48.880;-0.862;2022-10-26T08:11:27;100089.34;;;20.15;60.76
72359;BME280;60317;48.880;-0.862;2022-10-26T08:13:55;100085.94;;;20.13;60.65
72359;BME280;60317;48.880;-0.862;2022-10-26T08:16:21;100090.19;;;20.15;60.64
72359;BME280;60317;48.880;-0.862;2022-10-26T08:18:48;100100.06;;;20.15;60.74
72359;BME280;60317;48.880;-0.862;2022-10-26T08:21:14;100108.97;;;20.15;60.74
72359;BME280;60317;48.880;-0.862;2022-10-26T08:23:55;100106.97;;;20.17;60.90
72359;BME280;60317;48.880;-0.862;2022-10-26T08:26:21;100114.06;;;20.18;60.68
72359;BME280;60317;48.880;-0.862;2022-10-26T08:28:48;100112.50;;;20.16;60.81
72359;BME280;60317;48.880;-0.862;2022-10-26T08:31:15;100117.69;;;20.17;60.75
72359;BME280;60317;48.880;-0.862;2022-10-26T08:33:42;100124.06;;;20.16;60.66
72359;BME280;60317;48.880;-0.862;2022-10-26T08:36:10;100135.66;;;20.17;60.80
72359;BME280;60317;48.880;-0.862;2022-10-26T08:38:37;100148.22;;;20.16;60.88
72359;BME280;60317;48.880;-0.862;2022-10-26T08:41:05;100145.53;;;20.16;60.96
72359;BME280;60317;48.880;-0.862;2022-10-26T08:43:33;100152.47;;;20.19;60.93
72359;BME280;60317;48.880;-0.862;2022-10-26T08:46:04;100162.34;;;20.18;61.28
72359;BME280;60317;48.880;-0.862;2022-10-26T08:48:34;100162.19;;;20.20;60.95
72359;BME280;60317;48.880;-0.862;2022-10-26T08:51:03;100163.88;;;20.21;61.10
72359;BME280;60317;48.880;-0.862;2022-10-26T08:53:33;100154.88;;;20.22;60.90
72359;BME280;60317;48.880;-0.862;2022-10-26T08:56:03;100156.69;;;20.21;61.01
72359;BME280;60317;48.880;-0.862;2022-10-26T08:58:34;100163.03;;;20.20;61.40
72359;BME280;60317;48.880;-0.862;2022-10-26T09:01:03;100164.88;;;20.20;61.13
72359;BME280;60317;48.880;-0.862;2022-10-26T09:03:29;100184.50;;;20.20;61.00
72359;BME280;60317;48.880;-0.862;2022-10-26T09:06:04;100181.00;;;20.20;61.20
72359;BME280;60317;48.880;-0.862;2022-10-26T09:08:36;100170.25;;;20.20;61.17
72359;BME280;60317;48.880;-0.862;2022-10-26T09:11:07;100183.66;;;20.20;61.28
72359;BME280;60317;48.880;-0.862;2022-10-26T09:13:41;100166.56;;;20.21;61.43
72359;BME280;60317;48.880;-0.862;2022-10-26T09:16:13;100178.16;;;20.21;61.31
72359;BME280;60317;48.880;-0.862;2022-10-26T09:18:46;100168.28;;;20.22;61.51
72359;BME280;60317;48.880;-0.862;2022-10-26T09:21:19;100178.16;;;20.21;61.32
72359;BME280;60317;48.880;-0.862;2022-10-26T09:23:53;100173.50;;;20.23;61.58
72359;BME280;60317;48.880;-0.862;2022-10-26T09:26:26;100179.88;;;20.22;61.66
72359;BME280;60317;48.880;-0.862;2022-10-26T09:28:54;100177.03;;;20.24;61.56
72359;BME280;60317;48.880;-0.862;2022-10-26T09:31:22;100189.75;;;20.22;61.52
72359;BME280;60317;48.880;-0.862;2022-10-26T09:33:50;100195.69;;;20.25;61.59
72359;BME280;60317;48.880;-0.862;2022-10-26T09:36:19;100177.88;;;20.24;61.52
72359;BME280;60317;48.880;-0.862;2022-10-26T09:38:48;100181.72;;;20.22;61.81
72359;BME280;60317;48.880;-0.862;2022-10-26T09:41:19;100193.97;;;20.24;61.67
72359;BME280;60317;48.880;-0.862;2022-10-26T09:43:48;100202.88;;;20.25;61.87
72359;BME280;60317;48.880;-0.862;2022-10-26T09:46:17;100187.66;;;20.25;61.83
72359;BME280;60317;48.880;-0.862;2022-10-26T09:48:47;100188.34;;;20.27;61.79
72359;BME280;60317;48.880;-0.862;2022-10-26T09:51:16;100189.34;;;20.26;61.70
72359;BME280;60317;48.880;-0.862;2022-10-26T09:53:44;100214.34;;;20.27;61.83
72359;BME280;60317;48.880;-0.862;2022-10-26T09:56:11;100222.38;;;20.27;61.75
72359;BME280;60317;48.880;-0.862;2022-10-26T09:58:39;100219.84;;;20.25;61.87
72359;BME280;60317;48.880;-0.862;2022-10-26T10:01:06;100233.28;;;20.25;61.82
72359;BME280;60317;48.880;-0.862;2022-10-26T10:03:45;100245.69;;;20.26;61.93
72359;BME280;60317;48.880;-0.862;2022-10-26T10:06:14;100253.88;;;20.25;62.00
72359;BME280;60317;48.880;-0.862;2022-10-26T10:08:40;100261.66;;;20.28;61.81
72359;BME280;60317;48.880;-0.862;2022-10-26T10:11:09;100270.41;;;20.30;61.82
72359;BME280;60317;48.880;-0.862;2022-10-26T10:13:36;100258.84;;;20.30;61.95
72359;BME280;60317;48.880;-0.862;2022-10-26T10:16:04;100271.53;;;20.27;62.01
72359;BME280;60317;48.880;-0.862;2022-10-26T10:18:31;100274.94;;;20.30;61.78
72359;BME280;60317;48.880;-0.862;2022-10-26T10:20:58;100273.09;;;20.30;61.90
72359;BME280;60317;48.880;-0.862;2022-10-26T10:23:27;100288.22;;;20.31;61.88
72359;BME280;60317;48.880;-0.862;2022-10-26T10:25:58;100300.78;;;20.31;62.00
72359;BME280;60317;48.880;-0.862;2022-10-26T10:28:26;100296.25;;;20.31;61.81
72359;BME280;60317;48.880;-0.862;2022-10-26T10:30:53;100293.47;;;20.33;61.80
72359;BME280;60317;48.880;-0.862;2022-10-26T10:33:19;100290.91;;;20.31;62.01
72359;BME280;60317;48.880;-0.862;2022-10-26T10:35:46;100282.00;;;20.31;62.25
72359;BME280;60317;48.880;-0.862;2022-10-26T10:38:14;100321.16;;;20.33;61.92
72359;BME280;60317;48.880;-0.862;2022-10-26T10:40:47;100319.44;;;20.32;62.13
72359;BME280;60317;48.880;-0.862;2022-10-26T10:43:14;100323.94;;;20.32;62.04
72359;BME280;60317;48.880;-0.862;2022-10-26T10:45:46;100321.53;;;20.29;62.22
72359;BME280;60317;48.880;-0.862;2022-10-26T10:48:14;100341.78;;;20.33;62.02
72359;BME280;60317;48.880;-0.862;2022-10-26T10:50:49;100321.25;;;20.32;62.11
72359;BME280;60317;48.880;-0.862;2022-10-26T10:53:17;100330.16;;;20.32;62.21
72359;BME280;60317;48.880;-0.862;2022-10-26T10:55:49;100341.78;;;20.33;62.32
72359;BME280;60317;48.880;-0.862;2022-10-26T10:58:18;100343.59;;;20.32;62.27
72359;BME280;60317;48.880;-0.862;2022-10-26T11:00:50;100347.84;;;20.35;62.17
72359;BME280;60317;48.880;-0.862;2022-10-26T11:03:23;100357.88;;;20.33;62.21
72359;BME280;60317;48.880;-0.862;2022-10-26T11:05:57;100355.19;;;20.33;62.12
72359;BME280;60317;48.880;-0.862;2022-10-26T11:08:26;100353.34;;;20.33;62.11
72359;BME280;60317;48.880;-0.862;2022-10-26T11:10:58;100367.47;;;20.35;61.98
72359;BME280;60317;48.880;-0.862;2022-10-26T11:13:26;100352.50;;;20.33;62.13
72359;BME280;60317;48.880;-0.862;2022-10-26T11:15:57;100355.88;;;20.35;62.24
72359;BME280;60317;48.880;-0.862;2022-10-26T11:18:25;100360.25;;;20.36;62.20
72359;BME280;60317;48.880;-0.862;2022-10-26T11:20:54;100363.09;;;20.34;61.98
72359;BME280;60317;48.880;-0.862;2022-10-26T11:23:22;100373.97;;;20.33;62.08
72359;BME280;60317;48.880;-0.862;2022-10-26T11:25:52;100365.78;;;20.34;62.25
72359;BME280;60317;48.880;-0.862;2022-10-26T11:28:23;100376.53;;;20.34;62.12
72359;BME280;60317;48.880;-0.862;2022-10-26T11:30:54;100374.81;;;20.33;62.22
72359;BME280;60317;48.880;-0.862;2022-10-26T11:33:25;100373.00;;;20.34;62.13
72359;BME280;60317;48.880;-0.862;2022-10-26T11:35:55;100371.00;;;20.36;62.30
72359;BME280;60317;48.880;-0.862;2022-10-26T11:38:23;100375.66;;;20.34;62.35
72359;BME280;60317;48.880;-0.862;2022-10-26T11:41:12;100365.63;;;20.36;62.39
72359;BME280;60317;48.880;-0.862;2022-10-26T11:43:42;100373.84;;;20.34;62.44
72359;BME280;60317;48.880;-0.862;2022-10-26T11:46:11;100377.25;;;20.36;62.36
72359;BME280;60317;48.880;-0.862;2022-10-26T11:48:46;100386.16;;;20.37;62.30
72359;BME280;60317;48.880;-0.862;2022-10-26T11:51:17;100384.41;;;20.36;62.30
72359;BME280;60317;48.880;-0.862;2022-10-26T11:53:45;100396.72;;;20.38;62.48
72359;BME280;60317;48.880;-0.862;2022-10-26T11:56:19;100393.19;;;20.38;62.47
72359;BME280;60317;48.880;-0.862;2022-10-26T11:58:49;100403.94;;;20.38;62.54
72359;BME280;60317;48.880;-0.862;2022-10-26T12:01:15;100391.50;;;20.37;62.43
72359;BME280;60317;48.880;-0.862;2022-10-26T12:03:42;100387.00;;;20.37;62.55
72359;BME280;60317;48.880;-0.862;2022-10-26T12:06:13;100395.03;;;20.37;62.71
72359;BME280;60317;48.880;-0.862;2022-10-26T12:08:41;100390.53;;;20.38;62.64
72359;BME280;60317;48.880;-0.862;2022-10-26T12:11:10;100392.22;;;20.39;62.70
72359;BME280;60317;48.880;-0.862;2022-10-26T12:13:41;100401.41;;;20.36;63.24
72359;BME280;60317;48.880;-0.862;2022-10-26T12:16:10;100404.94;;;20.37;63.19
72359;BME280;60317;48.880;-0.862;2022-10-26T12:18:40;100398.72;;;20.36;63.42
72359;BME280;60317;48.880;-0.862;2022-10-26T12:21:24;100407.63;;;20.37;63.25
72359;BME280;60317;48.880;-0.862;2022-10-26T12:23:52;100402.09;;;20.38;63.33
72359;BME280;60317;48.880;-0.862;2022-10-26T12:31:40;100425.41;;;20.38;63.58
72359;BME280;60317;48.880;-0.862;2022-10-26T12:34:09;100427.38;;;20.36;63.76
72359;BME280;60317;48.880;-0.862;2022-10-26T12:39:27;100429.22;;;20.35;63.76
72359;BME280;60317;48.880;-0.862;2022-10-26T12:41:54;100415.09;;;20.33;64.05
72359;BME280;60317;48.880;-0.862;2022-10-26T12:46:57;100410.56;;;20.34;64.16
72359;BME280;60317;48.880;-0.862;2022-10-26T12:52:16;100406.78;;;20.36;64.05
72359;BME280;60317;48.880;-0.862;2022-10-26T12:54:46;100397.72;;;20.37;64.27
72359;BME280;60317;48.880;-0.862;2022-10-26T12:57:19;100407.63;;;20.37;64.41
72359;BME280;60317;48.880;-0.862;2022-10-26T12:59:50;100416.50;;;20.37;64.28
72359;BME280;60317;48.880;-0.862;2022-10-26T13:02:26;100405.78;;;20.37;64.36
72359;BME280;60317;48.880;-0.862;2022-10-26T13:07:38;100402.38;;;20.35;64.42
72359;BME280;60317;48.880;-0.862;2022-10-26T13:10:17;100400.53;;;20.36;64.63
72359;BME280;60317;48.880;-0.862;2022-10-26T13:12:46;100411.16;;;20.37;64.52